Terminal Aerodrome Forecast
Issued by NWS Green Bay, WI

Home | Current Version | Previous Version | Text Only | Print | Product List | Glossary On
Versions: 1 2 3 4 5 6 7 8 9 10 11 12
000
FTUS43 KGRB 251128
TAFGRB
TAF
KGRB 251128Z 2512/2612 19004KT P6SM SCT070 SCT100
      TEMPO 2512/2516 BKN070 BKN100
     FM251600 20005KT P6SM FEW050 SCT070
     FM260200 17004KT P6SM FEW080 SCT120
     FM260800 00000KT 6SM BR BKN110=

USA.gov is the U.S. government's official web portal to all federal, state and local government web resources and services.